Time;durP1;ratioP1;P1;durP2;ratioP2;P2;SDS_P1;SDS_P2;PMS_P1;PMS_P2;Temp;Humidity;BMP_temperature;BMP_pressure;BME280_temperature;BME280_humidity;BME280_pressure;Samples;Min_cycle;Max_cycle;Signal;HPM_P1;HPM_P2
2023/08/10 00:00:59;;;;;;;0.98;0.17;;;;;;;17.51;100.00;100795.91;5083513;28;20361;-68
2023/08/10 00:03:24;;;;;;;0.93;0.20;;;;;;;17.52;100.00;100802.81;5090723;28;20063;-68
2023/08/10 00:05:50;;;;;;;1.45;0.30;;;;;;;17.56;100.00;100805.91;5084913;28;20024;-68
2023/08/10 00:08:15;;;;;;;0.77;0.25;;;;;;;17.59;100.00;100806.34;5085130;28;20040;-68
2023/08/10 00:10:41;;;;;;;0.50;0.20;;;;;;;17.64;100.00;100795.28;5081888;28;20028;-68
2023/08/10 00:13:08;;;;;;;0.40;0.10;;;;;;;17.65;100.00;100793.47;5088043;28;20119;-68
2023/08/10 00:15:34;;;;;;;1.15;0.20;;;;;;;17.68;100.00;100793.13;5079261;28;20032;-68
2023/08/10 00:17:59;;;;;;;1.85;0.20;;;;;;;17.65;100.00;100791.69;5087258;28;20024;-67
2023/08/10 00:20:25;;;;;;;0.70;0.20;;;;;;;17.62;100.00;100792.00;5088779;28;20040;-68
2023/08/10 00:22:52;;;;;;;0.88;0.20;;;;;;;17.58;100.00;100788.91;5085796;28;20206;-67
2023/08/10 00:25:17;;;;;;;1.40;0.30;;;;;;;17.55;100.00;100786.66;5084737;28;20051;-68
2023/08/10 00:27:43;;;;;;;0.80;0.22;;;;;;;17.51;100.00;100797.72;5087655;28;20044;-68
2023/08/10 00:30:09;;;;;;;0.90;0.20;;;;;;;17.49;100.00;100799.72;5082881;28;20051;-68
2023/08/10 00:32:35;;;;;;;1.27;0.20;;;;;;;17.51;100.00;100803.81;5091297;28;20039;-68
2023/08/10 00:35:02;;;;;;;2.28;0.20;;;;;;;17.51;100.00;100798.53;5087501;28;20353;-67
2023/08/10 00:37:28;;;;;;;2.20;0.20;;;;;;;17.52;100.00;100810.72;5086198;28;20444;-68
2023/08/10 00:39:53;;;;;;;1.60;0.22;;;;;;;17.50;100.00;100819.78;5087820;28;20080;-67
2023/08/10 00:42:18;;;;;;;1.65;0.20;;;;;;;17.48;100.00;100820.00;5086119;28;20081;-68
2023/08/10 00:44:44;;;;;;;0.77;0.20;;;;;;;17.50;100.00;100817.97;5085428;28;20547;-68
2023/08/10 00:47:10;;;;;;;0.88;0.20;;;;;;;17.47;100.00;100823.63;5084281;28;20028;-68
2023/08/10 00:49:36;;;;;;;1.67;0.20;;;;;;;17.45;100.00;100819.53;5088747;28;20040;-68
2023/08/10 00:52:01;;;;;;;1.05;0.30;;;;;;;17.49;100.00;100816.34;5082981;28;20388;-68
2023/08/10 00:54:27;;;;;;;1.77;0.20;;;;;;;17.58;100.00;100815.25;5083824;28;20044;-68
2023/08/10 00:56:53;;;;;;;0.40;0.20;;;;;;;17.64;100.00;100812.91;5085154;28;20064;-68
2023/08/10 00:59:18;;;;;;;0.82;0.20;;;;;;;17.68;100.00;100824.75;5088060;28;20028;-67
2023/08/10 01:01:44;;;;;;;3.85;0.28;;;;;;;17.65;100.00;100825.06;5083958;28;20036;-67
2023/08/10 01:04:10;;;;;;;0.95;0.10;;;;;;;17.69;100.00;100818.47;5080664;28;20031;-68
2023/08/10 01:06:57;;;;;;;0.90;0.30;;;;;;;17.69;100.00;100815.84;5083722;28;20024;-67
2023/08/10 01:09:34;;;;;;;0.95;0.15;;;;;;;17.67;100.00;100821.28;5086362;28;20078;-68
2023/08/10 01:12:23;;;;;;;0.82;0.30;;;;;;;17.59;100.00;100829.25;5087940;28;20106;-68
2023/08/10 01:15:05;;;;;;;2.33;0.20;;;;;;;17.52;100.00;100831.78;5086701;28;20028;-68
2023/08/10 01:17:37;;;;;;;0.50;0.20;;;;;;;17.46;100.00;100832.53;5089800;28;20039;-68
2023/08/10 01:20:05;;;;;;;1.02;0.20;;;;;;;17.46;100.00;100827.28;5084000;28;20735;-67
2023/08/10 01:22:50;;;;;;;0.68;0.30;;;;;;;17.57;100.00;100831.25;5087277;28;20129;-67
2023/08/10 01:25:16;;;;;;;2.80;0.20;;;;;;;17.59;100.00;100831.88;5082477;28;20044;-67
2023/08/10 01:27:44;;;;;;;0.85;0.20;;;;;;;17.48;100.00;100830.53;5091993;28;20028;-68
2023/08/10 01:30:11;;;;;;;0.98;0.20;;;;;;;17.36;100.00;100831.97;5083535;28;20382;-67
2023/08/10 01:32:36;;;;;;;0.50;0.22;;;;;;;17.29;100.00;100825.78;5084304;28;20491;-68
2023/08/10 01:35:05;;;;;;;1.85;0.20;;;;;;;17.21;100.00;100829.31;5087294;28;20040;-68
2023/08/10 01:37:32;;;;;;;0.80;0.30;;;;;;;17.19;100.00;100830.47;5083824;28;20028;-67
2023/08/10 01:39:58;;;;;;;0.82;0.20;;;;;;;17.16;100.00;100836.09;5080867;28;20028;-68
2023/08/10 01:42:24;;;;;;;0.50;0.20;;;;;;;17.16;100.00;100838.75;5087681;28;20123;-68
2023/08/10 01:44:50;;;;;;;2.58;0.20;;;;;;;17.16;100.00;100842.19;5084059;28;20028;-67
2023/08/10 01:47:25;;;;;;;1.85;0.20;;;;;;;17.16;100.00;100841.38;5084142;28;20392;-68
2023/08/10 01:49:59;;;;;;;1.35;0.32;;;;;;;17.16;100.00;100849.28;5087858;28;20070;-67
2023/08/10 01:52:30;;;;;;;0.88;0.20;;;;;;;17.13;100.00;100850.44;5081889;28;20138;-67
2023/08/10 01:54:56;;;;;;;0.52;0.20;;;;;;;17.07;100.00;100853.78;5083152;28;20036;-68
2023/08/10 01:57:22;;;;;;;1.02;0.20;;;;;;;17.02;100.00;100855.31;5084605;28;20387;-67
2023/08/10 01:59:47;;;;;;;0.88;0.20;;;;;;;17.00;100.00;100852.88;5086272;28;20036;-68
2023/08/10 02:02:13;;;;;;;0.95;0.20;;;;;;;16.98;100.00;100843.53;5086815;28;20024;-67
2023/08/10 02:04:38;;;;;;;0.80;0.20;;;;;;;16.94;100.00;100843.06;5089185;28;20126;-68
2023/08/10 02:07:04;;;;;;;1.05;0.20;;;;;;;16.91;100.00;100840.78;5086009;28;20024;-68
2023/08/10 02:09:29;;;;;;;1.15;0.20;;;;;;;16.90;100.00;100842.59;5085849;28;20044;-68
2023/08/10 02:11:55;;;;;;;2.05;0.30;;;;;;;16.92;100.00;100850.31;5084372;28;20024;-68
2023/08/10 02:14:20;;;;;;;1.25;0.20;;;;;;;16.88;100.00;100849.84;5089831;28;20040;-68
2023/08/10 02:16:46;;;;;;;0.70;0.30;;;;;;;16.85;100.00;100850.19;5083975;28;20075;-68
2023/08/10 02:19:11;;;;;;;1.60;0.82;;;;;;;16.81;100.00;100850.72;5087928;28;20031;-68
2023/08/10 02:21:37;;;;;;;0.57;0.20;;;;;;;16.77;100.00;100844.16;5082564;28;20421;-68
2023/08/10 02:24:04;;;;;;;1.65;0.20;;;;;;;16.73;100.00;100835.78;5086530;28;20059;-69
2023/08/10 02:26:29;;;;;;;1.05;0.30;;;;;;;16.75;100.00;100838.25;5086449;28;20568;-68
2023/08/10 02:28:55;;;;;;;1.77;0.30;;;;;;;16.73;100.00;100835.78;5094452;28;20028;-67
2023/08/10 02:31:21;;;;;;;0.98;0.30;;;;;;;16.68;100.00;100827.59;5084629;28;21227;-68
2023/08/10 02:33:46;;;;;;;1.50;1.17;;;;;;;16.71;100.00;100827.25;5087634;28;20036;-67
2023/08/10 02:36:12;;;;;;;1.67;0.20;;;;;;;16.78;100.00;100832.66;5088280;28;20499;-68
2023/08/10 02:38:37;;;;;;;4.18;0.20;;;;;;;16.80;100.00;100822.75;5091061;28;20058;-68
2023/08/10 02:41:03;;;;;;;3.40;0.20;;;;;;;16.81;100.00;100832.28;5088765;28;20126;-68
2023/08/10 02:43:28;;;;;;;3.22;0.30;;;;;;;16.80;100.00;100835.91;5087922;28;20059;-68
2023/08/10 02:45:54;;;;;;;0.77;0.40;;;;;;;16.80;100.00;100825.41;5084832;28;20033;-67
2023/08/10 02:48:20;;;;;;;1.35;0.30;;;;;;;16.81;100.00;100827.03;5090666;28;20038;-68
2023/08/10 02:50:46;;;;;;;2.08;0.35;;;;;;;16.77;100.00;100826.56;5087945;28;20079;-68
2023/08/10 02:53:11;;;;;;;2.28;0.40;;;;;;;16.74;100.00;100821.66;5085890;28;20824;-68
2023/08/10 02:55:37;;;;;;;2.13;0.22;;;;;;;16.73;100.00;100820.00;5091147;28;20139;-68
2023/08/10 02:58:02;;;;;;;2.30;0.20;;;;;;;16.68;100.00;100822.34;5092036;28;20028;-67
2023/08/10 03:00:27;;;;;;;0.70;0.30;;;;;;;16.65;100.00;100830.59;5088270;28;20063;-68
2023/08/10 03:02:53;;;;;;;2.00;0.30;;;;;;;16.60;100.00;100819.75;5082575;28;20028;-67
2023/08/10 03:05:18;;;;;;;1.30;0.20;;;;;;;16.57;100.00;100822.72;5087591;28;20484;-68
2023/08/10 03:07:45;;;;;;;0.50;0.17;;;;;;;16.57;100.00;100825.34;5090855;28;20055;-68
2023/08/10 03:10:11;;;;;;;2.92;0.25;;;;;;;16.58;100.00;100821.72;5086283;28;21278;-68
2023/08/10 03:12:36;;;;;;;1.67;0.20;;;;;;;16.58;100.00;100824.34;5088631;28;20036;-67
2023/08/10 03:15:04;;;;;;;0.75;0.28;;;;;;;16.57;100.00;100831.44;5093200;28;20032;-67
2023/08/10 03:17:30;;;;;;;2.92;0.30;;;;;;;16.55;100.00;100832.59;5084770;28;20070;-67
2023/08/10 03:19:55;;;;;;;2.13;0.30;;;;;;;16.53;100.00;100835.44;5088312;28;20455;-67
2023/08/10 03:22:20;;;;;;;2.20;0.22;;;;;;;16.52;100.00;100841.69;5091657;28;20040;-67
2023/08/10 03:24:46;;;;;;;0.50;0.20;;;;;;;16.54;100.00;100844.13;5085614;28;20063;-68
2023/08/10 03:27:11;;;;;;;1.38;0.30;;;;;;;16.52;100.00;100838.22;5087296;28;20097;-67
2023/08/10 03:29:37;;;;;;;2.78;0.30;;;;;;;16.54;100.00;100841.50;5087052;28;20059;-67
2023/08/10 03:32:02;;;;;;;3.10;0.32;;;;;;;16.54;100.00;100847.56;5086999;28;20502;-67
2023/08/10 03:34:28;;;;;;;1.08;0.25;;;;;;;16.57;100.00;100847.22;5086198;28;20036;-67
2023/08/10 03:36:54;;;;;;;2.75;0.30;;;;;;;16.55;100.00;100846.56;5087036;28;20028;-67
2023/08/10 03:39:19;;;;;;;0.85;0.30;;;;;;;16.60;100.00;100856.56;5088291;28;20471;-67
2023/08/10 03:41:45;;;;;;;1.23;0.40;;;;;;;16.63;100.00;100852.78;5090895;28;20020;-67
2023/08/10 03:44:11;;;;;;;1.67;0.47;;;;;;;16.70;100.00;100854.56;5087365;28;20547;-67
2023/08/10 03:46:36;;;;;;;1.95;0.30;;;;;;;16.69;100.00;100860.81;5086421;28;20028;-68
2023/08/10 03:49:02;;;;;;;0.95;0.40;;;;;;;16.65;100.00;100861.34;5092259;28;20591;-67
2023/08/10 03:51:27;;;;;;;1.50;0.30;;;;;;;16.59;100.00;100862.81;5088134;28;20576;-67
2023/08/10 03:53:53;;;;;;;2.08;0.40;;;;;;;16.51;100.00;100868.97;5082084;28;20067;-67
2023/08/10 03:56:18;;;;;;;2.22;0.45;;;;;;;16.54;100.00;100870.44;5083750;28;20554;-67
2023/08/10 03:58:44;;;;;;;0.50;0.22;;;;;;;16.54;100.00;100867.81;5088144;28;20036;-67
2023/08/10 04:01:09;;;;;;;6.72;0.40;;;;;;;16.51;100.00;100876.88;5084718;28;20067;-67
2023/08/10 04:03:35;;;;;;;1.63;0.40;;;;;;;16.50;100.00;100880.50;5089276;28;20032;-67
2023/08/10 04:06:00;;;;;;;1.02;0.30;;;;;;;16.43;100.00;100879.53;5087578;28;20491;-67
2023/08/10 04:08:26;;;;;;;0.85;0.40;;;;;;;16.39;100.00;100886.13;5087595;28;20035;-67
2023/08/10 04:10:51;;;;;;;1.25;0.35;;;;;;;16.35;100.00;100884.81;5086068;28;20028;-67
2023/08/10 04:13:16;;;;;;;2.15;0.30;;;;;;;16.35;100.00;100884.00;5087088;28;20111;-67
2023/08/10 04:15:42;;;;;;;0.80;0.40;;;;;;;16.35;100.00;100884.81;5084341;28;20036;-67
2023/08/10 04:18:07;;;;;;;0.50;0.25;;;;;;;16.37;100.00;100882.84;5087267;28;20024;-67
2023/08/10 04:20:33;;;;;;;1.35;0.40;;;;;;;16.39;100.00;100887.94;5085964;28;20047;-67
2023/08/10 04:22:59;;;;;;;1.45;0.50;;;;;;;16.43;100.00;100881.34;5087687;28;20039;-67
2023/08/10 04:25:25;;;;;;;3.72;0.40;;;;;;;16.48;100.00;100882.47;5088054;28;20582;-67
2023/08/10 04:27:51;;;;;;;1.98;0.40;;;;;;;16.52;100.00;100877.69;5084478;28;20387;-67
2023/08/10 04:30:16;;;;;;;1.98;0.30;;;;;;;16.53;100.00;100877.50;5085151;28;20024;-67
2023/08/10 04:32:42;;;;;;;1.88;0.30;;;;;;;16.57;100.00;100883.22;5089519;28;20055;-67
2023/08/10 04:35:09;;;;;;;1.83;0.30;;;;;;;16.59;100.00;100887.31;5089537;28;20076;-67
2023/08/10 04:37:34;;;;;;;2.20;0.30;;;;;;;16.63;100.00;100890.41;5089633;28;20032;-68
2023/08/10 04:39:59;;;;;;;1.60;0.40;;;;;;;16.65;100.00;100888.47;5089757;28;20107;-67
2023/08/10 04:42:25;;;;;;;3.97;0.40;;;;;;;16.70;100.00;100877.41;5083948;28;20480;-68
2023/08/10 04:44:50;;;;;;;3.35;0.50;;;;;;;16.73;100.00;100877.91;5084209;28;20028;-67
2023/08/10 04:47:16;;;;;;;1.83;0.40;;;;;;;16.75;100.00;100878.53;5090723;28;20020;-67
2023/08/10 04:49:41;;;;;;;1.35;0.50;;;;;;;16.74;100.00;100879.53;5091107;28;20031;-67
2023/08/10 04:52:07;;;;;;;5.60;0.40;;;;;;;16.82;100.00;100883.94;5088198;28;20031;-67
2023/08/10 04:54:32;;;;;;;0.73;0.43;;;;;;;16.87;100.00;100895.56;5087274;28;20047;-67
2023/08/10 04:56:58;;;;;;;2.22;0.40;;;;;;;16.97;100.00;100891.91;5080768;28;20024;-67
2023/08/10 04:59:23;;;;;;;1.95;0.43;;;;;;;17.04;100.00;100896.25;5084489;28;20032;-66
2023/08/10 05:01:48;;;;;;;2.85;0.50;;;;;;;17.03;100.00;100901.69;5079148;28;20032;-66
2023/08/10 05:04:15;;;;;;;1.08;0.47;;;;;;;17.09;100.00;100895.72;5075719;28;20040;-66
2023/08/10 05:06:41;;;;;;;0.73;0.35;;;;;;;17.19;100.00;100896.31;5081219;28;20044;-72
2023/08/10 05:09:06;;;;;;;2.33;0.60;;;;;;;17.22;100.00;100898.59;5085395;28;20025;-72
2023/08/10 05:11:32;;;;;;;5.97;0.47;;;;;;;17.25;100.00;100900.88;5080457;28;20056;-73
2023/08/10 05:13:58;;;;;;;1.70;0.30;;;;;;;17.31;100.00;100897.53;5080730;28;20027;-72
2023/08/10 05:16:23;;;;;;;2.92;0.50;;;;;;;17.40;100.00;100907.00;5087439;28;20482;-72
2023/08/10 05:18:50;;;;;;;1.13;0.30;;;;;;;17.50;100.00;100897.00;5084705;28;20427;-72
2023/08/10 05:21:16;;;;;;;2.13;0.40;;;;;;;17.59;100.00;100900.38;5087364;28;20028;-72
2023/08/10 05:23:42;;;;;;;2.10;0.85;;;;;;;17.66;100.00;100900.53;5087055;28;20058;-72
2023/08/10 05:26:08;;;;;;;2.53;0.43;;;;;;;17.78;100.00;100894.63;5081952;28;20044;-72
2023/08/10 05:28:34;;;;;;;1.00;0.40;;;;;;;17.82;100.00;100903.81;5084431;28;21429;-72
2023/08/10 05:30:59;;;;;;;2.47;0.30;;;;;;;17.86;100.00;100896.38;5078658;28;20040;-72
2023/08/10 05:33:25;;;;;;;2.97;0.45;;;;;;;17.92;100.00;100895.66;5087490;28;20031;-72
2023/08/10 05:35:51;;;;;;;1.67;0.50;;;;;;;18.02;100.00;100890.91;5086017;28;20051;-72
2023/08/10 05:38:16;;;;;;;1.15;0.50;;;;;;;18.06;100.00;100891.34;5083884;28;20024;-72
2023/08/10 05:40:42;;;;;;;1.25;0.40;;;;;;;18.26;100.00;100891.59;5085598;28;20028;-72
2023/08/10 05:43:07;;;;;;;1.58;0.40;;;;;;;18.39;100.00;100899.69;5083607;28;20487;-72
2023/08/10 05:45:33;;;;;;;2.45;0.63;;;;;;;18.43;100.00;100895.69;5082894;28;20036;-73
2023/08/10 05:47:58;;;;;;;2.05;0.43;;;;;;;18.50;100.00;100901.81;5082571;28;20110;-73
2023/08/10 05:50:23;;;;;;;0.80;0.28;;;;;;;18.57;100.00;100900.09;5078568;28;20032;-73
2023/08/10 05:52:49;;;;;;;4.03;0.82;;;;;;;18.64;100.00;100900.19;5084821;28;20530;-72
2023/08/10 05:55:15;;;;;;;1.83;0.50;;;;;;;18.69;100.00;100903.91;5082405;28;22486;-72
2023/08/10 05:57:43;;;;;;;1.55;0.43;;;;;;;18.79;100.00;100907.06;5084689;28;20036;-72
2023/08/10 06:00:12;;;;;;;2.35;0.30;;;;;;;18.95;100.00;100913.09;5090370;28;20109;-73
2023/08/10 06:02:38;;;;;;;1.08;0.45;;;;;;;19.06;100.00;100910.78;5088195;28;20054;-68
2023/08/10 06:05:06;;;;;;;0.70;0.40;;;;;;;19.23;100.00;100900.78;5088907;28;20047;-67
2023/08/10 06:07:32;;;;;;;2.65;0.73;;;;;;;19.41;100.00;100905.56;5079809;28;20031;-67
2023/08/10 06:09:58;;;;;;;0.40;0.20;;;;;;;19.54;100.00;100903.88;5088898;28;20127;-68
2023/08/10 06:12:23;;;;;;;3.70;0.47;;;;;;;19.72;100.00;100910.53;5094675;28;20028;-68
2023/08/10 06:14:49;;;;;;;2.08;0.35;;;;;;;19.86;100.00;100909.56;5092050;28;20024;-68
2023/08/10 06:17:14;;;;;;;0.68;0.30;;;;;;;19.91;98.96;100903.69;5087867;28;20078;-68
2023/08/10 06:19:39;;;;;;;0.80;0.35;;;;;;;19.98;97.44;100908.03;5092611;28;20076;-68
2023/08/10 06:22:05;;;;;;;1.30;0.30;;;;;;;20.11;96.29;100908.09;5089939;28;20031;-68
2023/08/10 06:24:30;;;;;;;2.70;0.45;;;;;;;20.16;96.01;100916.25;5087404;28;20028;-68
2023/08/10 06:26:57;;;;;;;1.30;0.40;;;;;;;20.21;95.87;100916.50;5083260;28;20396;-68
2023/08/10 06:29:22;;;;;;;1.02;0.30;;;;;;;20.34;94.53;100917.53;5092092;28;20399;-68
2023/08/10 06:31:48;;;;;;;0.63;0.30;;;;;;;20.58;93.99;100918.91;5085329;28;20028;-68
2023/08/10 06:34:14;;;;;;;0.93;0.30;;;;;;;20.72;93.15;100913.44;5083161;28;20098;-68
2023/08/10 06:36:39;;;;;;;1.30;0.30;;;;;;;20.87;91.43;100905.31;5086791;28;20154;-68
2023/08/10 06:39:05;;;;;;;1.95;0.32;;;;;;;20.97;90.70;100903.09;5088207;28;20031;-68
2023/08/10 06:41:30;;;;;;;2.20;0.40;;;;;;;21.10;90.60;100900.47;5090839;28;20043;-68
2023/08/10 06:43:56;;;;;;;0.80;0.30;;;;;;;21.13;89.92;100902.72;5086389;28;20059;-68
2023/08/10 06:46:21;;;;;;;0.82;0.32;;;;;;;21.33;90.30;100908.03;5085140;28;20411;-68
2023/08/10 06:48:47;;;;;;;2.47;0.40;;;;;;;21.24;90.61;100913.75;5086839;28;20032;-68
2023/08/10 06:51:13;;;;;;;1.63;0.30;;;;;;;21.06;90.78;100924.91;5091906;28;20066;-68
2023/08/10 06:53:38;;;;;;;0.77;0.30;;;;;;;20.99;90.35;100919.59;5081977;28;20445;-68
2023/08/10 06:56:05;;;;;;;3.08;0.30;;;;;;;21.20;89.79;100930.03;5085029;28;27072;-68
2023/08/10 06:58:32;;;;;;;1.13;0.20;;;;;;;21.39;88.07;100933.72;5084234;28;20023;-67
2023/08/10 07:00:58;;;;;;;1.60;0.30;;;;;;;21.66;87.04;100936.38;5085656;28;20122;-68
2023/08/10 07:03:24;;;;;;;1.02;0.30;;;;;;;21.90;84.67;100935.69;5085883;28;20391;-68
2023/08/10 07:05:49;;;;;;;4.40;0.60;;;;;;;21.80;84.10;100937.97;5088451;28;20028;-67
2023/08/10 07:08:15;;;;;;;0.60;0.40;;;;;;;21.67;83.43;100949.41;5092020;28;20043;-68
2023/08/10 07:10:40;;;;;;;1.80;0.30;;;;;;;21.52;83.53;100946.97;5078373;28;20024;-68
2023/08/10 07:13:05;;;;;;;2.63;0.30;;;;;;;21.48;83.07;100945.75;5086669;28;20360;-68
2023/08/10 07:15:32;;;;;;;0.57;0.20;;;;;;;21.60;81.95;100945.13;5085376;28;20036;-68
2023/08/10 07:17:58;;;;;;;0.63;0.25;;;;;;;21.56;81.71;100942.09;5088331;28;20066;-68
2023/08/10 07:20:23;;;;;;;1.70;0.30;;;;;;;21.46;81.27;100945.13;5085721;28;20496;-68
2023/08/10 07:22:49;;;;;;;2.78;0.40;;;;;;;21.25;82.17;100933.94;5080204;28;20054;-67
2023/08/10 07:25:21;;;;;;;2.20;0.30;;;;;;;21.08;81.50;100939.59;5088113;28;20044;-68
2023/08/10 07:27:47;;;;;;;0.85;0.28;;;;;;;21.13;82.59;100936.34;5089675;28;20031;-68
2023/08/10 07:30:13;;;;;;;0.80;0.43;;;;;;;21.33;81.17;100931.88;5080295;28;20032;-68
2023/08/10 07:32:40;;;;;;;2.42;0.32;;;;;;;21.52;79.71;100936.38;5092619;28;20418;-68
2023/08/10 07:35:06;;;;;;;0.82;0.52;;;;;;;21.75;79.26;100945.72;5087240;28;20106;-68
2023/08/10 07:37:35;;;;;;;1.40;0.50;;;;;;;22.01;79.94;100945.72;5087693;28;20483;-69
2023/08/10 07:40:02;;;;;;;2.15;0.40;;;;;;;22.28;79.27;100938.47;5084846;28;20038;-69
2023/08/10 07:42:27;;;;;;;1.77;0.40;;;;;;;22.46;79.35;100943.09;5087894;28;20040;-68
2023/08/10 07:44:53;;;;;;;7.78;0.43;;;;;;;22.55;78.59;100946.34;5082030;28;20085;-69
2023/08/10 07:47:18;;;;;;;2.45;0.50;;;;;;;22.59;77.97;100945.72;5083759;28;20032;-69
2023/08/10 07:49:43;;;;;;;1.00;0.40;;;;;;;22.71;77.87;100959.13;5091871;28;20494;-69
2023/08/10 07:52:09;;;;;;;0.70;0.40;;;;;;;22.82;77.74;100951.31;5089978;28;20040;-69
2023/08/10 07:54:35;;;;;;;1.35;0.30;;;;;;;22.96;77.91;100945.94;5072554;28;20043;-69
2023/08/10 07:57:00;;;;;;;1.05;0.30;;;;;;;23.01;77.52;100951.44;5083187;28;20035;-69
2023/08/10 07:59:25;;;;;;;4.05;0.30;;;;;;;23.07;76.77;100950.56;5084407;28;20033;-68
2023/08/10 08:01:51;;;;;;;1.35;0.50;;;;;;;23.17;76.20;100957.03;5086037;28;20028;-68
2023/08/10 08:04:16;;;;;;;2.22;0.40;;;;;;;23.23;75.46;100949.22;5082941;28;20066;-69
2023/08/10 08:06:42;;;;;;;0.50;0.22;;;;;;;23.36;73.08;100955.25;5080368;28;20496;-68
2023/08/10 08:09:07;;;;;;;2.25;1.05;;;;;;;23.40;72.67;100945.00;5089223;28;20043;-68
2023/08/10 08:11:34;;;;;;;2.28;0.30;;;;;;;23.54;71.44;100941.25;5090600;28;20050;-69
2023/08/10 08:14:00;;;;;;;1.10;0.20;;;;;;;23.62;71.42;100942.81;5086991;28;20028;-68
2023/08/10 08:16:26;;;;;;;3.03;0.38;;;;;;;23.79;71.13;100946.50;5081372;28;20074;-69
2023/08/10 08:18:58;;;;;;;1.13;0.30;;;;;;;23.97;71.27;100949.19;5090150;28;20123;-69
2023/08/10 08:21:26;;;;;;;0.52;0.30;;;;;;;24.11;71.37;100963.97;5087451;28;20559;-69
2023/08/10 08:23:52;;;;;;;2.00;0.77;;;;;;;24.20;70.44;100958.34;5085488;28;20028;-69
2023/08/10 08:26:19;;;;;;;0.80;0.30;;;;;;;24.35;70.19;100961.50;5090606;28;20113;-69
2023/08/10 08:28:46;;;;;;;0.88;0.20;;;;;;;24.40;69.68;100951.81;5084196;28;20107;-69
2023/08/10 08:31:13;;;;;;;3.08;0.30;;;;;;;24.44;69.74;100962.84;5087288;28;20032;-69
2023/08/10 08:33:41;;;;;;;0.80;0.30;;;;;;;24.60;68.26;100962.19;5083128;28;20120;-69
2023/08/10 08:36:07;;;;;;;0.50;0.20;;;;;;;24.55;68.71;100967.41;5080331;28;20097;-68
2023/08/10 08:38:33;;;;;;;3.28;0.30;;;;;;;24.53;68.35;100966.00;5086784;28;20020;-68
2023/08/10 08:41:06;;;;;;;0.50;0.20;;;;;;;24.54;68.35;100960.47;5087034;28;20093;-68
2023/08/10 08:43:33;;;;;;;0.55;0.25;;;;;;;24.46;67.49;100966.91;5080040;28;20040;-68
2023/08/10 08:45:59;;;;;;;1.75;0.20;;;;;;;24.31;68.25;100971.78;5084828;28;20460;-68
2023/08/10 08:48:28;;;;;;;0.98;0.40;;;;;;;24.24;68.40;100973.66;5089470;28;20032;-68
2023/08/10 08:50:54;;;;;;;0.50;0.20;;;;;;;24.46;68.33;100969.56;5087148;28;20105;-68
2023/08/10 08:53:21;;;;;;;0.60;0.30;;;;;;;24.50;68.06;100972.59;5087004;28;20036;-68
2023/08/10 08:55:47;;;;;;;0.52;0.25;;;;;;;24.61;68.26;100973.66;5085320;28;20028;-68
2023/08/10 08:58:17;;;;;;;1.02;0.20;;;;;;;24.60;66.80;100972.03;5088521;28;20027;-68
2023/08/10 09:00:50;;;;;;;5.20;0.30;;;;;;;24.62;67.00;100975.28;5084941;28;20059;-68
2023/08/10 09:03:17;;;;;;;1.77;0.25;;;;;;;24.67;66.94;100972.78;5087008;28;20104;-68
2023/08/10 09:05:44;;;;;;;0.68;0.20;;;;;;;24.75;66.85;100965.28;5090737;28;20034;-68
2023/08/10 09:08:13;;;;;;;1.58;0.20;;;;;;;24.58;66.69;100964.25;5087694;28;20028;-68
2023/08/10 09:10:39;;;;;;;0.60;0.20;;;;;;;24.55;66.59;100970.06;5080388;28;20040;-68
2023/08/10 09:13:12;;;;;;;0.55;0.30;;;;;;;24.50;65.79;100972.59;5079454;28;20031;-68
2023/08/10 09:15:38;;;;;;;0.50;0.20;;;;;;;24.43;65.91;100974.53;5084721;28;20036;-69
2023/08/10 09:18:05;;;;;;;0.70;0.20;;;;;;;24.52;65.72;100972.38;5082615;28;20035;-68
2023/08/10 09:20:30;;;;;;;0.70;0.20;;;;;;;24.54;65.15;100970.28;5086615;28;20028;-68
2023/08/10 09:22:58;;;;;;;1.58;0.30;;;;;;;24.56;65.01;100977.03;5086211;28;20050;-68
2023/08/10 09:25:24;;;;;;;0.63;0.30;;;;;;;24.64;64.93;100976.69;5081038;28;20050;-68
2023/08/10 09:27:51;;;;;;;0.50;0.20;;;;;;;24.63;63.37;100976.91;5078879;28;20030;-68
2023/08/10 09:30:18;;;;;;;2.50;0.30;;;;;;;24.66;64.27;100976.47;5081284;28;20409;-68
2023/08/10 09:32:44;;;;;;;0.40;0.10;;;;;;;24.79;64.89;100977.13;5089764;28;20046;-68
2023/08/10 09:35:14;;;;;;;0.82;0.20;;;;;;;24.71;62.84;100973.94;5087310;28;20070;-68
2023/08/10 09:37:41;;;;;;;0.82;0.20;;;;;;;24.62;63.08;100975.28;5080496;28;20024;-68
2023/08/10 09:40:10;;;;;;;0.60;0.20;;;;;;;24.51;63.63;100974.22;5081662;28;20036;-68
2023/08/10 09:42:37;;;;;;;0.40;0.20;;;;;;;24.51;63.83;100976.88;5086842;28;20020;-68
2023/08/10 09:45:08;;;;;;;6.88;0.40;;;;;;;24.52;64.00;100981.19;5084507;28;20062;-68
2023/08/10 09:47:39;;;;;;;4.63;0.30;;;;;;;24.61;63.48;100979.00;5083152;28;20032;-68
2023/08/10 09:50:12;;;;;;;4.03;0.30;;;;;;;24.51;63.13;100974.22;5084118;28;23867;-68
2023/08/10 09:52:38;;;;;;;0.47;0.15;;;;;;;24.44;63.60;100968.16;5078516;28;20099;-68
2023/08/10 09:55:06;;;;;;;0.45;0.20;;;;;;;24.49;62.43;100968.31;5084531;28;20036;-68
2023/08/10 09:57:32;;;;;;;2.15;0.20;;;;;;;24.59;62.39;100976.56;5082840;28;20068;-68
2023/08/10 09:59:58;;;;;;;0.52;0.13;;;;;;;24.54;61.01;100968.44;5081417;28;20028;-68
2023/08/10 10:02:25;;;;;;;0.90;0.20;;;;;;;24.51;61.49;100974.22;5086502;28;20031;-68
2023/08/10 10:04:51;;;;;;;0.40;0.20;;;;;;;24.53;61.44;100966.81;5083890;28;20032;-68
2023/08/10 10:07:23;;;;;;;0.40;0.20;;;;;;;24.67;60.95;100970.09;5084160;28;20032;-68
2023/08/10 10:09:50;;;;;;;0.25;0.10;;;;;;;24.70;59.67;100967.81;5084660;28;20043;-68
2023/08/10 10:12:16;;;;;;;1.02;0.20;;;;;;;24.56;59.75;100963.72;5088089;28;20418;-68
2023/08/10 10:14:43;;;;;;;1.10;0.20;;;;;;;24.50;60.00;100967.25;5079999;28;20032;-68
2023/08/10 10:17:14;;;;;;;1.15;0.35;;;;;;;24.56;59.58;100965.56;5080381;28;20032;-68
2023/08/10 10:19:40;;;;;;;2.35;0.20;;;;;;;24.59;58.63;100967.75;5084668;28;20028;-68
2023/08/10 10:22:07;;;;;;;0.47;0.20;;;;;;;24.55;58.16;100963.94;5078096;28;20032;-68
2023/08/10 10:24:33;;;;;;;0.70;0.20;;;;;;;24.47;59.54;100963.19;5086132;28;20491;-67
2023/08/10 10:27:04;;;;;;;0.60;0.30;;;;;;;24.69;59.29;100965.38;5081781;28;20119;-68
2023/08/10 10:29:48;;;;;;;0.82;0.20;;;;;;;24.74;56.54;100957.50;5085672;28;20032;-68
2023/08/10 10:32:15;;;;;;;0.77;0.30;;;;;;;24.55;59.13;100959.41;5080696;28;20387;-68
2023/08/10 10:34:42;;;;;;;1.80;0.20;;;;;;;24.44;60.08;100954.84;5088444;28;20081;-68
2023/08/10 10:37:29;;;;;;;0.50;0.20;;;;;;;24.52;59.42;100954.53;5078317;28;20032;-68
2023/08/10 10:40:14;;;;;;;1.60;0.20;;;;;;;24.60;57.18;100946.22;5081407;28;20089;-68
2023/08/10 10:43:01;;;;;;;2.00;0.30;;;;;;;24.71;57.54;100948.13;5083495;28;20063;-68
2023/08/10 10:45:27;;;;;;;0.82;0.10;;;;;;;24.83;58.97;100950.03;5083068;28;20060;-68
2023/08/10 10:47:55;;;;;;;0.70;0.20;;;;;;;24.98;58.16;100947.78;5092595;28;20058;-68
2023/08/10 10:50:25;;;;;;;0.52;0.20;;;;;;;25.05;58.67;100943.97;5087725;28;20024;-68
2023/08/10 10:52:52;;;;;;;0.50;0.20;;;;;;;25.00;58.91;100941.19;5085187;28;20031;-68
2023/08/10 10:55:17;;;;;;;0.80;0.30;;;;;;;25.04;59.82;100938.88;5086202;28;20127;-68
2023/08/10 10:57:46;;;;;;;0.50;0.20;;;;;;;25.04;58.84;100942.38;5087051;28;20549;-68
2023/08/10 11:00:12;;;;;;;0.60;0.20;;;;;;;25.16;58.83;100942.38;5084996;28;20115;-68
2023/08/10 11:02:39;;;;;;;1.08;0.40;;;;;;;25.11;57.78;100937.72;5087472;28;20024;-68
2023/08/10 11:05:11;;;;;;;1.77;0.30;;;;;;;25.06;57.53;100942.91;5084001;28;20036;-68
2023/08/10 11:07:41;;;;;;;1.90;0.20;;;;;;;25.16;57.68;100947.69;5091897;28;20024;-68
2023/08/10 11:10:07;;;;;;;2.05;0.20;;;;;;;25.17;58.39;100940.50;5082057;28;20036;-68
2023/08/10 11:12:33;;;;;;;0.38;0.20;;;;;;;25.09;58.52;100944.31;5089209;28;20028;-69
2023/08/10 11:14:58;;;;;;;0.47;0.25;;;;;;;25.17;58.04;100938.66;5082319;28;20019;-68
2023/08/10 11:17:27;;;;;;;0.55;0.20;;;;;;;25.23;57.02;100939.59;5087614;28;20035;-68
2023/08/10 11:19:52;;;;;;;0.50;0.20;;;;;;;25.04;57.00;100933.56;5085465;28;20070;-68